Lake Ann, Michigan
Current Conditions -  °F | °C
As of 10:37 AM on Friday 24 Oct 2014 (Local Time) from KTVC Reporting Station
Haze Haze  
Wind Chill: 52°   Ceiling: 2300
Heat Index: 52°   Visibility: 5mi
Dew Point: 48°   Wind: 5mph
Humidity: 86%   Direction: NA
Pressure: 30.01"   Gusts: NA
Location:  44.72°N, 85.84°W
Report Text: KTVC 241437Z VRB04KT 5SM BR SCT006 SCT016 OVC023 11/09 A3001 RMK AO2 T01110089
Loading
Personal Weather Stations






























Interactive Weather Map New forecast layout! Learn more

10-Day Weather Forecast

Advertisements
Track Severe Weather on mobile